Time;durP1;ratioP1;P1;durP2;ratioP2;P2;SDS_P1;SDS_P2;PMS_P1;PMS_P2;Temp;Humidity;BMP_temperature;BMP_pressure;BME280_temperature;BME280_humidity;BME280_pressure;Samples;Min_cycle;Max_cycle;Signal;HPM_P1;HPM_P2
2023/12/20 00:01:22;;;;;;;2.10;0.57;;;5.70;99.90;;;;;;5015898;28;20071;-77
2023/12/20 00:03:48;;;;;;;4.70;1.13;;;5.70;99.90;;;;;;5001137;28;20413;-77
2023/12/20 00:06:13;;;;;;;2.70;0.45;;;5.70;99.90;;;;;;4990835;28;20034;-75
2023/12/20 00:08:39;;;;;;;3.00;0.40;;;5.70;99.90;;;;;;5021189;28;20050;-76
2023/12/20 00:11:05;;;;;;;2.42;0.95;;;5.80;99.90;;;;;;5018503;28;20128;-76
2023/12/20 00:13:31;;;;;;;10.68;1.35;;;5.90;99.90;;;;;;4992434;28;20143;-76
2023/12/20 00:15:56;;;;;;;5.47;0.55;;;5.80;99.90;;;;;;5010923;28;20482;-76
2023/12/20 00:18:23;;;;;;;5.13;0.60;;;5.90;99.90;;;;;;5009475;28;20062;-76
2023/12/20 00:20:48;;;;;;;9.00;0.95;;;5.80;99.90;;;;;;5009659;28;20207;-76
2023/12/20 00:23:14;;;;;;;1.02;0.50;;;5.80;99.90;;;;;;5009992;28;20479;-76
2023/12/20 00:25:40;;;;;;;8.18;1.08;;;5.70;99.90;;;;;;4992506;28;20050;-76
2023/12/20 00:28:06;;;;;;;0.50;0.50;;;5.70;99.90;;;;;;5008508;28;20217;-76
2023/12/20 00:30:32;;;;;;;17.17;0.60;;;5.60;99.90;;;;;;4991797;28;20103;-76
2023/12/20 00:32:57;;;;;;;4.60;0.98;;;5.50;99.90;;;;;;5010159;28;20052;-76
2023/12/20 00:35:23;;;;;;;9.30;1.10;;;5.50;99.90;;;;;;4990093;28;20530;-76
2023/12/20 00:37:49;;;;;;;11.60;1.08;;;5.40;99.90;;;;;;4995593;28;20042;-76
2023/12/20 00:40:15;;;;;;;3.50;0.73;;;5.40;99.90;;;;;;4996450;28;20478;-76
2023/12/20 00:42:40;;;;;;;5.78;0.98;;;5.40;99.90;;;;;;5014917;28;20095;-76
2023/12/20 00:45:06;;;;;;;10.13;0.85;;;5.40;99.90;;;;;;5009452;28;20069;-76
2023/12/20 00:47:32;;;;;;;5.82;0.85;;;5.40;99.90;;;;;;4977868;28;20038;-76
2023/12/20 00:49:58;;;;;;;5.90;0.73;;;5.40;99.90;;;;;;5016770;28;20034;-76
2023/12/20 00:52:25;;;;;;;5.95;0.60;;;5.40;99.90;;;;;;5014340;28;20038;-76
2023/12/20 00:54:51;;;;;;;2.47;0.50;;;5.30;99.90;;;;;;5001058;28;20065;-76
2023/12/20 00:57:16;;;;;;;1.25;0.80;;;5.30;99.90;;;;;;4999475;28;20058;-76
2023/12/20 00:59:42;;;;;;;3.50;0.85;;;5.30;99.90;;;;;;5016111;28;20073;-76
2023/12/20 01:02:09;;;;;;;6.35;1.25;;;5.30;99.90;;;;;;5023335;28;20053;-76
2023/12/20 01:04:34;;;;;;;4.07;1.17;;;5.40;99.90;;;;;;5014560;28;20071;-76
2023/12/20 01:07:00;;;;;;;1.48;0.82;;;5.30;99.90;;;;;;5011654;28;20041;-76
2023/12/20 01:09:28;;;;;;;6.20;0.95;;;5.30;99.90;;;;;;4992990;28;20053;-76
2023/12/20 01:11:54;;;;;;;5.07;0.50;;;5.40;99.90;;;;;;5008187;28;20190;-76
2023/12/20 01:14:20;;;;;;;10.00;1.00;;;5.50;99.90;;;;;;4993685;28;20058;-77
2023/12/20 01:16:45;;;;;;;4.35;0.80;;;5.50;99.90;;;;;;4992375;28;20061;-76
2023/12/20 01:19:13;;;;;;;4.03;0.57;;;5.60;99.90;;;;;;5007121;28;20053;-77
2023/12/20 01:21:39;;;;;;;5.20;1.00;;;5.60;99.90;;;;;;5008268;28;20102;-76
2023/12/20 01:24:04;;;;;;;1.95;0.70;;;5.60;99.90;;;;;;4964204;28;20587;-77
2023/12/20 01:26:30;;;;;;;5.68;0.45;;;5.60;99.90;;;;;;4992613;28;20506;-77
2023/12/20 01:28:56;;;;;;;5.78;1.58;;;5.60;99.90;;;;;;5011187;28;20094;-76
2023/12/20 01:31:21;;;;;;;5.88;0.90;;;5.60;99.90;;;;;;4992583;28;20267;-76
2023/12/20 01:33:47;;;;;;;2.30;0.93;;;5.60;99.90;;;;;;5010939;28;20045;-76
2023/12/20 01:36:13;;;;;;;0.60;0.55;;;5.60;99.90;;;;;;5010138;28;20402;-77
2023/12/20 01:38:39;;;;;;;3.33;1.42;;;5.60;99.90;;;;;;5008892;28;20506;-76
2023/12/20 01:41:04;;;;;;;1.27;0.40;;;5.70;99.90;;;;;;5007544;28;20429;-77
2023/12/20 01:43:30;;;;;;;7.25;1.25;;;5.70;99.90;;;;;;5038046;28;20041;-77
2023/12/20 01:46:00;;;;;;;3.65;1.10;;;5.60;99.90;;;;;;5016257;28;20053;-76
2023/12/20 01:48:27;;;;;;;1.48;0.80;;;5.60;99.90;;;;;;5012127;28;20121;-76
2023/12/20 01:50:54;;;;;;;8.68;1.00;;;5.70;99.90;;;;;;5016008;28;20046;-76
2023/12/20 01:53:21;;;;;;;4.38;2.10;;;5.60;99.90;;;;;;5006290;28;20486;-76
2023/12/20 01:55:50;;;;;;;14.85;1.90;;;5.60;99.90;;;;;;4998673;28;20078;-76
2023/12/20 01:58:16;;;;;;;5.95;1.40;;;5.60;99.90;;;;;;5015488;28;20058;-76
2023/12/20 02:00:42;;;;;;;1.42;0.70;;;5.60;99.90;;;;;;5000135;28;20485;-77
2023/12/20 02:03:08;;;;;;;4.75;1.48;;;5.60;99.90;;;;;;5000631;28;20045;-76
2023/12/20 02:05:36;;;;;;;3.40;0.82;;;5.60;99.90;;;;;;4981294;28;20042;-76
2023/12/20 02:08:02;;;;;;;6.20;0.80;;;5.70;99.90;;;;;;5008262;28;20049;-76
2023/12/20 02:10:29;;;;;;;8.45;1.52;;;5.70;99.90;;;;;;5015194;28;20042;-76
2023/12/20 02:12:54;;;;;;;6.22;0.90;;;5.70;99.90;;;;;;5080065;28;20046;-76
2023/12/20 02:15:21;;;;;;;9.32;0.98;;;5.80;99.90;;;;;;5009410;28;20418;-76
2023/12/20 02:17:47;;;;;;;6.93;0.95;;;5.90;99.90;;;;;;5004499;28;21516;-76
2023/12/20 02:20:13;;;;;;;2.72;0.65;;;5.90;99.90;;;;;;4993037;28;20078;-76
2023/12/20 02:22:38;;;;;;;3.20;0.80;;;6.00;99.90;;;;;;5006041;28;20038;-77
2023/12/20 02:25:04;;;;;;;9.93;1.35;;;6.00;99.90;;;;;;5008860;28;20042;-77
2023/12/20 02:27:30;;;;;;;10.73;1.13;;;6.00;99.90;;;;;;4993124;28;20113;-77
2023/12/20 02:29:56;;;;;;;7.88;0.80;;;6.00;99.90;;;;;;5006210;28;20508;-77
2023/12/20 02:32:25;;;;;;;1.75;0.73;;;6.00;99.90;;;;;;4993089;28;20042;-77
2023/12/20 02:34:51;;;;;;;9.63;1.00;;;6.10;99.90;;;;;;4988408;28;20119;-77
2023/12/20 02:37:17;;;;;;;7.50;1.05;;;6.10;99.90;;;;;;5009740;28;20597;-77
2023/12/20 02:39:43;;;;;;;2.40;1.05;;;6.10;99.90;;;;;;5004147;28;20113;-77
2023/12/20 02:42:08;;;;;;;2.15;0.63;;;6.10;99.90;;;;;;5008569;28;20383;-77
2023/12/20 02:44:34;;;;;;;8.32;1.50;;;6.20;99.90;;;;;;5008506;28;20049;-77
2023/12/20 02:47:00;;;;;;;7.78;0.88;;;6.20;99.90;;;;;;4994992;28;20101;-77
2023/12/20 02:49:25;;;;;;;7.22;1.05;;;6.20;99.90;;;;;;5008726;28;20049;-77
2023/12/20 02:51:51;;;;;;;6.15;0.73;;;6.20;99.90;;;;;;5009651;28;20034;-77
2023/12/20 02:54:17;;;;;;;11.15;1.10;;;6.20;99.90;;;;;;4992730;28;20076;-77
2023/12/20 02:56:42;;;;;;;9.93;2.63;;;6.20;99.90;;;;;;5007632;28;20088;-77
2023/12/20 02:59:09;;;;;;;3.35;0.60;;;6.20;99.90;;;;;;4992499;28;20049;-77
2023/12/20 03:01:34;;;;;;;9.55;1.13;;;6.20;99.90;;;;;;5009135;28;20161;-77
2023/12/20 03:04:01;;;;;;;4.45;1.40;;;6.20;99.90;;;;;;4991573;28;20127;-77
2023/12/20 03:06:26;;;;;;;8.10;1.13;;;6.30;99.90;;;;;;5015421;28;20054;-77
2023/12/20 03:08:52;;;;;;;5.15;1.25;;;6.20;99.90;;;;;;4999836;28;20052;-77
2023/12/20 03:11:18;;;;;;;2.67;1.02;;;6.20;99.90;;;;;;5008952;28;20686;-77
2023/12/20 03:13:44;;;;;;;17.13;1.80;;;6.30;99.90;;;;;;5003328;28;20049;-76
2023/12/20 03:16:10;;;;;;;11.13;1.15;;;6.30;99.90;;;;;;5026679;28;20038;-76
2023/12/20 03:18:36;;;;;;;6.45;1.50;;;6.30;99.90;;;;;;5007937;28;20258;-76
2023/12/20 03:21:02;;;;;;;6.53;1.20;;;6.30;99.90;;;;;;5007345;28;20042;-77
2023/12/20 03:23:27;;;;;;;6.20;1.38;;;6.30;99.90;;;;;;5007479;28;20073;-77
2023/12/20 03:25:53;;;;;;;8.10;0.85;;;6.30;99.90;;;;;;4979455;28;20066;-77
2023/12/20 03:28:19;;;;;;;3.60;1.63;;;6.30;99.90;;;;;;4994710;28;20035;-77
2023/12/20 03:30:45;;;;;;;9.63;1.33;;;6.20;99.90;;;;;;5023837;28;20068;-77
2023/12/20 03:33:10;;;;;;;12.77;1.85;;;6.20;99.90;;;;;;5012197;28;20084;-77
2023/12/20 03:35:36;;;;;;;9.02;1.20;;;6.20;99.90;;;;;;5008734;28;20075;-77
2023/12/20 03:38:02;;;;;;;9.13;1.73;;;6.10;99.90;;;;;;5011868;28;20042;-77
2023/12/20 03:40:28;;;;;;;14.80;2.38;;;6.10;99.90;;;;;;5015918;28;20050;-77
2023/12/20 03:42:54;;;;;;;16.83;1.83;;;6.10;99.90;;;;;;5016934;28;20113;-77
2023/12/20 03:45:19;;;;;;;7.78;1.35;;;6.20;99.90;;;;;;5001651;28;20046;-76
2023/12/20 03:47:45;;;;;;;5.35;1.45;;;6.20;99.90;;;;;;5019313;28;20056;-77
2023/12/20 03:50:10;;;;;;;18.80;2.88;;;6.20;99.90;;;;;;5001261;28;20038;-76
2023/12/20 03:52:36;;;;;;;16.02;2.30;;;6.20;99.90;;;;;;4984087;28;20582;-77
2023/12/20 03:55:02;;;;;;;9.65;0.85;;;6.30;99.90;;;;;;4984663;28;20038;-76
2023/12/20 03:57:28;;;;;;;8.02;1.38;;;6.30;99.90;;;;;;5000278;28;20049;-77
2023/12/20 03:59:53;;;;;;;9.20;1.50;;;6.30;99.90;;;;;;4979698;28;20521;-77
2023/12/20 04:02:19;;;;;;;18.13;2.00;;;6.30;99.90;;;;;;5017395;28;20128;-77
2023/12/20 04:04:45;;;;;;;3.85;0.85;;;6.30;99.90;;;;;;4983325;28;20106;-76
2023/12/20 04:07:10;;;;;;;16.98;2.10;;;6.30;99.90;;;;;;4999828;28;20038;-77
2023/12/20 04:09:36;;;;;;;9.73;2.13;;;6.30;99.90;;;;;;4997412;28;20087;-77
2023/12/20 04:12:02;;;;;;;4.80;1.00;;;6.30;99.90;;;;;;4981301;28;20034;-77
2023/12/20 04:14:27;;;;;;;6.63;1.13;;;6.30;99.90;;;;;;5011279;28;20053;-77
2023/12/20 04:16:54;;;;;;;9.00;1.05;;;6.30;99.90;;;;;;4984660;28;20038;-77
2023/12/20 04:19:19;;;;;;;8.52;2.13;;;6.30;99.90;;;;;;5010741;28;20069;-76
2023/12/20 04:21:45;;;;;;;5.25;1.35;;;6.40;99.90;;;;;;5005627;28;20469;-77
2023/12/20 04:24:10;;;;;;;7.82;1.33;;;6.40;99.90;;;;;;4979068;28;20122;-77
2023/12/20 04:26:36;;;;;;;17.23;2.85;;;6.40;99.90;;;;;;4961922;28;20094;-77
2023/12/20 04:29:02;;;;;;;26.77;2.65;;;6.50;99.90;;;;;;5012122;28;20129;-76
2023/12/20 04:31:28;;;;;;;13.65;1.67;;;6.50;99.90;;;;;;5010031;28;20046;-76
2023/12/20 04:33:53;;;;;;;6.57;1.55;;;6.40;99.90;;;;;;4994861;28;20119;-76
2023/12/20 04:36:19;;;;;;;3.70;0.95;;;6.50;99.90;;;;;;4979034;28;20048;-77
2023/12/20 04:38:45;;;;;;;10.75;1.35;;;6.50;99.90;;;;;;4990927;28;20050;-76
2023/12/20 04:41:10;;;;;;;14.00;2.10;;;6.50;99.90;;;;;;5012504;28;20668;-76
2023/12/20 04:43:36;;;;;;;5.35;1.65;;;6.50;99.90;;;;;;4994839;28;20050;-77
2023/12/20 04:46:02;;;;;;;9.35;1.83;;;6.60;99.90;;;;;;5010524;28;20065;-76
2023/12/20 04:48:28;;;;;;;12.75;1.50;;;6.60;99.90;;;;;;4990266;28;20486;-77
2023/12/20 04:50:53;;;;;;;13.30;1.85;;;6.60;99.90;;;;;;5031376;28;20046;-76
2023/12/20 04:53:19;;;;;;;8.93;1.23;;;6.60;99.90;;;;;;5016789;28;20046;-77
2023/12/20 04:55:44;;;;;;;7.78;1.75;;;6.60;99.90;;;;;;5009774;28;20050;-76
2023/12/20 04:58:10;;;;;;;5.90;1.85;;;6.60;99.90;;;;;;5014023;28;20128;-76
2023/12/20 05:00:36;;;;;;;8.48;1.73;;;6.60;99.90;;;;;;4976675;28;20414;-77
2023/12/20 05:03:01;;;;;;;12.80;1.73;;;6.60;99.90;;;;;;4995416;28;20086;-76
2023/12/20 05:05:27;;;;;;;10.45;1.88;;;6.60;99.90;;;;;;5010554;28;20831;-76
2023/12/20 05:07:53;;;;;;;5.05;1.65;;;6.60;99.90;;;;;;5018975;28;20033;-76
2023/12/20 05:10:18;;;;;;;8.95;1.65;;;6.60;99.90;;;;;;4999978;28;20046;-76
2023/12/20 05:12:44;;;;;;;5.88;0.60;;;6.60;99.90;;;;;;4998992;28;20064;-76
2023/12/20 05:15:09;;;;;;;23.23;2.78;;;6.60;99.90;;;;;;5000530;28;20237;-77
2023/12/20 05:17:35;;;;;;;12.00;1.58;;;6.60;99.90;;;;;;4997900;28;20038;-75
2023/12/20 05:20:01;;;;;;;7.28;1.85;;;6.60;99.90;;;;;;5050226;28;20114;-76
2023/12/20 05:22:27;;;;;;;8.18;1.83;;;6.60;99.90;;;;;;5031318;28;20045;-76
2023/12/20 05:24:53;;;;;;;4.95;0.90;;;6.70;99.90;;;;;;5012963;28;20117;-76
2023/12/20 05:27:18;;;;;;;12.30;1.40;;;6.70;99.90;;;;;;5010409;28;20081;-76
2023/12/20 05:29:44;;;;;;;9.75;2.63;;;6.70;99.90;;;;;;4991769;28;20057;-76
2023/12/20 05:32:10;;;;;;;9.65;1.63;;;6.70;99.90;;;;;;4980926;28;20056;-76
2023/12/20 05:34:36;;;;;;;25.52;3.20;;;6.80;99.90;;;;;;4991908;28;20643;-76
2023/12/20 05:37:02;;;;;;;14.63;1.92;;;6.80;99.90;;;;;;4978070;28;20034;-76
2023/12/20 05:39:28;;;;;;;7.57;1.10;;;6.80;99.90;;;;;;4990331;28;20130;-76
2023/12/20 05:41:53;;;;;;;10.75;2.33;;;6.80;99.90;;;;;;5015932;28;20046;-76
2023/12/20 05:44:19;;;;;;;9.13;1.83;;;6.90;99.90;;;;;;5015627;28;20053;-76
2023/12/20 05:46:45;;;;;;;6.60;1.35;;;6.90;99.90;;;;;;4998323;28;20054;-76
2023/12/20 05:49:10;;;;;;;12.25;1.77;;;6.90;99.90;;;;;;5016807;28;20038;-76
2023/12/20 05:51:36;;;;;;;21.23;2.35;;;6.90;99.90;;;;;;5014552;28;20137;-76
2023/12/20 05:54:02;;;;;;;6.05;1.38;;;6.90;99.90;;;;;;5016862;28;20038;-76
2023/12/20 05:56:27;;;;;;;9.18;2.00;;;6.90;99.90;;;;;;4997505;28;20049;-76
2023/12/20 05:58:53;;;;;;;9.32;1.02;;;6.90;99.90;;;;;;5016538;28;20490;-76
2023/12/20 06:01:19;;;;;;;11.23;1.15;;;6.90;99.90;;;;;;5015303;28;20533;-75
2023/12/20 06:03:45;;;;;;;11.70;1.80;;;6.90;99.90;;;;;;4982989;28;20084;-76
2023/12/20 06:06:12;;;;;;;4.80;1.83;;;6.90;99.90;;;;;;5015119;28;20101;-75
2023/12/20 06:08:38;;;;;;;12.77;1.92;;;6.90;99.90;;;;;;5012815;28;20046;-76
2023/12/20 06:11:05;;;;;;;12.77;1.80;;;6.90;99.90;;;;;;5015284;28;20121;-76
2023/12/20 06:13:31;;;;;;;12.48;2.03;;;7.00;99.90;;;;;;4992591;28;20066;-76
2023/12/20 06:15:57;;;;;;;11.60;1.52;;;7.00;99.90;;;;;;5010030;28;20531;-76
2023/12/20 06:18:23;;;;;;;12.27;1.63;;;7.00;99.90;;;;;;5006844;28;20046;-75
2023/12/20 06:20:48;;;;;;;6.70;1.27;;;7.00;99.90;;;;;;4976873;28;20034;-76
2023/12/20 06:23:14;;;;;;;12.95;1.17;;;7.00;99.90;;;;;;5009813;28;20073;-76
2023/12/20 06:25:40;;;;;;;5.65;1.27;;;7.00;99.90;;;;;;5022922;28;20063;-76
2023/12/20 06:28:06;;;;;;;1.63;1.05;;;7.00;99.90;;;;;;5009240;28;20106;-76
2023/12/20 06:30:32;;;;;;;4.72;1.42;;;7.00;99.90;;;;;;4989793;28;20539;-76
2023/12/20 06:32:58;;;;;;;18.38;1.98;;;7.00;99.90;;;;;;4994713;28;20496;-75
2023/12/20 06:35:24;;;;;;;6.47;1.98;;;7.00;99.90;;;;;;5009036;28;20046;-75
2023/12/20 06:37:50;;;;;;;12.88;1.95;;;7.00;99.90;;;;;;4981311;28;20050;-75
2023/12/20 06:40:16;;;;;;;3.78;1.30;;;7.00;99.90;;;;;;4999487;28;20054;-77
2023/12/20 06:42:42;;;;;;;2.35;1.08;;;7.00;99.90;;;;;;4998223;28;20038;-77
2023/12/20 06:45:08;;;;;;;6.30;0.90;;;7.00;99.90;;;;;;4999736;28;20398;-78
2023/12/20 06:47:34;;;;;;;10.25;1.60;;;7.10;99.90;;;;;;4995768;28;20091;-78
2023/12/20 06:50:00;;;;;;;6.55;1.65;;;7.10;99.90;;;;;;5009768;28;20101;-78
2023/12/20 06:52:26;;;;;;;14.32;1.80;;;7.10;99.90;;;;;;4973197;28;20048;-78
2023/12/20 06:54:52;;;;;;;10.98;1.52;;;7.10;99.90;;;;;;5010748;28;20583;-77
2023/12/20 06:57:19;;;;;;;15.75;1.33;;;7.10;99.90;;;;;;5005837;28;20125;-77
2023/12/20 06:59:45;;;;;;;16.00;1.95;;;7.20;99.90;;;;;;4978933;28;20046;-77
2023/12/20 07:02:11;;;;;;;11.57;1.48;;;7.20;99.90;;;;;;4997347;28;20050;-77
2023/12/20 07:04:42;;;;;;;16.02;1.63;;;7.20;99.90;;;;;;4996346;28;20045;-77
2023/12/20 07:07:07;;;;;;;11.50;2.45;;;7.20;99.90;;;;;;4996801;28;20069;-77
2023/12/20 07:09:33;;;;;;;6.35;1.63;;;7.20;99.90;;;;;;4961534;28;20034;-78
2023/12/20 07:11:59;;;;;;;15.40;1.75;;;7.20;99.90;;;;;;5015398;28;20056;-77
2023/12/20 07:14:25;;;;;;;2.03;0.82;;;7.20;99.90;;;;;;4994222;28;20406;-77
2023/12/20 07:16:51;;;;;;;2.63;1.08;;;7.30;99.90;;;;;;5008693;28;20048;-77
2023/12/20 07:19:17;;;;;;;9.02;1.25;;;7.30;99.90;;;;;;4994542;28;20046;-77
2023/12/20 07:21:43;;;;;;;15.05;2.45;;;7.30;99.90;;;;;;4995939;28;20068;-77
2023/12/20 07:24:08;;;;;;;11.38;1.80;;;7.30;99.90;;;;;;4995430;28;20041;-78
2023/12/20 07:26:35;;;;;;;6.80;1.55;;;7.30;99.90;;;;;;4976406;28;20052;-77
2023/12/20 07:29:00;;;;;;;5.43;1.83;;;7.30;99.90;;;;;;4981239;28;20037;-78
2023/12/20 07:31:26;;;;;;;8.55;1.80;;;7.30;99.90;;;;;;4995434;28;20049;-77
2023/12/20 07:33:52;;;;;;;8.20;1.13;;;7.30;99.90;;;;;;4995902;28;20085;-77
2023/12/20 07:36:19;;;;;;;11.50;1.10;;;7.30;99.90;;;;;;4965318;28;20558;-77
2023/12/20 07:38:44;;;;;;;5.53;1.30;;;7.30;99.90;;;;;;4978219;28;20046;-77
2023/12/20 07:41:10;;;;;;;1.73;0.80;;;7.30;99.90;;;;;;5000786;28;20046;-77
2023/12/20 07:43:36;;;;;;;4.13;1.23;;;7.30;99.90;;;;;;4962425;28;20042;-77
2023/12/20 07:46:08;;;;;;;3.00;1.45;;;7.30;99.90;;;;;;5079391;28;20042;-77
2023/12/20 07:48:37;;;;;;;;;;;7.30;99.90;;;;;;4997291;28;20033;-76
2023/12/20 07:51:07;;;;;;;11.23;2.05;;;7.30;99.90;;;;;;5000204;28;20375;-77
2023/12/20 07:53:34;;;;;;;6.13;1.45;;;7.40;99.90;;;;;;5002806;28;20105;-77
2023/12/20 07:55:59;;;;;;;4.95;1.40;;;7.40;99.90;;;;;;4980755;28;20046;-76
2023/12/20 07:58:25;;;;;;;2.50;1.30;;;7.40;99.90;;;;;;4962288;28;20046;-76
2023/12/20 08:00:51;;;;;;;7.25;1.65;;;7.40;99.90;;;;;;4987471;28;20535;-76
2023/12/20 08:03:16;;;;;;;11.32;1.73;;;7.40;99.90;;;;;;5002055;28;20042;-77
2023/12/20 08:05:42;;;;;;;10.48;1.65;;;7.50;99.90;;;;;;5016818;28;20045;-76
2023/12/20 08:08:08;;;;;;;12.73;1.88;;;7.40;99.90;;;;;;4985005;28;20046;-76
2023/12/20 08:10:33;;;;;;;7.05;0.77;;;7.50;99.90;;;;;;4969862;28;20041;-77
2023/12/20 08:12:59;;;;;;;4.15;1.15;;;7.50;99.90;;;;;;4999615;28;20080;-76
2023/12/20 08:15:25;;;;;;;10.18;1.45;;;7.50;99.90;;;;;;5002228;28;20137;-76
2023/12/20 08:17:50;;;;;;;11.00;1.55;;;7.50;99.90;;;;;;4970557;28;20042;-76
2023/12/20 08:20:17;;;;;;;7.70;1.75;;;7.50;99.90;;;;;;5001439;28;20061;-76
2023/12/20 08:22:42;;;;;;;5.18;1.65;;;7.50;99.90;;;;;;4999899;28;20122;-77
2023/12/20 08:25:08;;;;;;;6.20;1.10;;;7.60;99.90;;;;;;4984974;28;20042;-77
2023/12/20 08:27:39;;;;;;;6.15;1.75;;;7.60;99.90;;;;;;5001806;28;20075;-76
2023/12/20 08:30:06;;;;;;;9.35;1.00;;;7.60;99.90;;;;;;4999501;28;20046;-76
2023/12/20 08:32:32;;;;;;;4.07;0.88;;;7.60;99.90;;;;;;4966385;28;20035;-77
2023/12/20 08:34:58;;;;;;;6.50;1.98;;;7.70;99.90;;;;;;4997386;28;20045;-77
2023/12/20 08:37:24;;;;;;;9.75;1.70;;;7.70;99.90;;;;;;4983924;28;20050;-76
2023/12/20 08:39:49;;;;;;;10.73;1.70;;;7.70;99.90;;;;;;4982994;28;20053;-77
2023/12/20 08:42:15;;;;;;;9.02;2.28;;;7.70;99.90;;;;;;5017087;28;20038;-76
2023/12/20 08:44:41;;;;;;;8.45;1.65;;;7.70;99.90;;;;;;5016428;28;20054;-76
2023/12/20 08:47:07;;;;;;;6.93;1.42;;;7.70;99.90;;;;;;4998614;28;20046;-77
2023/12/20 08:49:32;;;;;;;8.93;1.58;;;7.70;99.90;;;;;;4983603;28;20052;-76
2023/12/20 08:51:58;;;;;;;8.43;1.42;;;7.70;99.90;;;;;;4998510;28;20078;-77
2023/12/20 08:54:24;;;;;;;9.68;2.53;;;7.70;99.90;;;;;;4999916;28;20085;-77
2023/12/20 08:56:50;;;;;;;3.90;1.17;;;7.70;99.90;;;;;;4999381;28;20070;-76
2023/12/20 08:59:16;;;;;;;6.57;1.98;;;7.70;99.90;;;;;;4984458;28;20105;-76
2023/12/20 09:01:41;;;;;;;10.25;1.60;;;7.80;99.90;;;;;;4984711;28;20133;-76
2023/12/20 09:04:07;;;;;;;10.68;1.85;;;7.80;99.90;;;;;;4983166;28;20053;-76
2023/12/20 09:06:33;;;;;;;12.80;1.50;;;7.80;99.90;;;;;;5000752;28;20052;-76
2023/12/20 09:08:58;;;;;;;9.00;1.92;;;7.80;99.90;;;;;;4999390;28;20064;-76
2023/12/20 09:11:24;;;;;;;8.73;2.20;;;7.90;99.90;;;;;;4968480;28;20406;-76
2023/12/20 09:13:50;;;;;;;7.80;1.55;;;8.00;99.90;;;;;;4998389;28;20038;-76
2023/12/20 09:16:16;;;;;;;14.70;1.55;;;8.00;99.90;;;;;;4974854;28;20073;-77
2023/12/20 09:18:42;;;;;;;12.82;1.10;;;8.00;99.90;;;;;;4971625;28;20054;-76
2023/12/20 09:21:07;;;;;;;8.43;1.75;;;8.10;99.90;;;;;;4996977;28;20042;-76
2023/12/20 09:23:33;;;;;;;5.85;1.48;;;8.10;99.90;;;;;;5015784;28;20048;-76
2023/12/20 09:25:59;;;;;;;9.10;1.38;;;8.10;99.90;;;;;;5005746;28;20046;-77
2023/12/20 09:28:25;;;;;;;6.53;1.38;;;8.10;99.90;;;;;;4999893;28;20387;-76
2023/12/20 09:30:50;;;;;;;7.80;1.58;;;8.10;99.90;;;;;;5000883;28;20105;-76
2023/12/20 09:33:16;;;;;;;8.75;1.63;;;8.00;99.90;;;;;;5068755;28;20076;-76
2023/12/20 09:35:42;;;;;;;12.40;1.30;;;8.00;99.90;;;;;;4976420;28;20045;-76
2023/12/20 09:38:08;;;;;;;9.80;1.35;;;8.00;99.90;;;;;;4979336;28;20047;-76
2023/12/20 09:40:36;;;;;;;8.48;1.38;;;8.00;99.90;;;;;;4999668;28;20068;-76
2023/12/20 09:43:10;;;;;;;4.90;0.93;;;8.20;99.90;;;;;;5014424;28;20050;-76
2023/12/20 09:45:36;;;;;;;14.88;2.35;;;8.30;99.90;;;;;;4999632;28;20046;-76
2023/12/20 09:48:04;;;;;;;5.78;1.60;;;8.40;99.90;;;;;;4994568;28;20049;-76
2023/12/20 09:50:32;;;;;;;12.10;1.40;;;8.50;99.90;;;;;;5016322;28;20070;-76
2023/12/20 09:53:00;;;;;;;6.03;1.55;;;8.60;99.90;;;;;;5016329;28;20056;-76
2023/12/20 09:55:30;;;;;;;8.93;1.65;;;8.50;99.90;;;;;;5014980;28;20048;-76
2023/12/20 09:57:56;;;;;;;13.50;1.45;;;8.50;99.90;;;;;;5015771;28;20080;-76
2023/12/20 10:00:21;;;;;;;3.53;1.45;;;8.50;99.90;;;;;;4981790;28;20050;-76
2023/12/20 10:02:51;;;;;;;22.88;2.38;;;8.50;99.90;;;;;;4977423;28;20482;-77
2023/12/20 10:05:20;;;;;;;7.35;1.33;;;8.50;99.90;;;;;;4998192;28;20049;-76
2023/12/20 10:07:47;;;;;;;4.88;0.93;;;8.30;99.90;;;;;;4999427;28;20152;-76
2023/12/20 10:10:14;;;;;;;2.28;0.60;;;8.10;99.90;;;;;;5011306;28;20034;-76
2023/12/20 10:12:39;;;;;;;4.80;1.00;;;7.90;99.90;;;;;;4998645;28;20107;-76
2023/12/20 10:15:06;;;;;;;2.15;0.52;;;7.70;99.90;;;;;;5016455;28;20074;-75
2023/12/20 10:17:32;;;;;;;2.50;0.77;;;7.60;99.90;;;;;;5014083;28;20050;-76
2023/12/20 10:19:58;;;;;;;0.93;0.30;;;7.40;99.90;;;;;;5014761;28;20121;-76
2023/12/20 10:22:24;;;;;;;3.10;0.50;;;7.30;99.90;;;;;;5014546;28;20108;-76
2023/12/20 10:24:50;;;;;;;4.78;0.47;;;7.20;99.90;;;;;;5016146;28;20038;-76
2023/12/20 10:27:19;;;;;;;3.13;0.82;;;7.10;99.90;;;;;;4999367;28;20034;-77
2023/12/20 10:29:45;;;;;;;1.85;0.40;;;7.00;99.90;;;;;;4997614;28;20038;-76
2023/12/20 10:32:24;;;;;;;4.78;1.10;;;7.00;99.90;;;;;;5000173;28;20088;-76
2023/12/20 10:34:50;;;;;;;3.63;0.50;;;6.90;99.90;;;;;;5016855;28;20095;-77
2023/12/20 10:37:16;;;;;;;3.65;0.63;;;6.90;99.90;;;;;;5019264;28;20061;-76
2023/12/20 10:39:43;;;;;;;6.82;0.70;;;6.90;99.90;;;;;;5001744;28;20045;-76
2023/12/20 10:42:12;;;;;;;4.07;0.50;;;6.90;99.90;;;;;;5006995;28;20042;-76
2023/12/20 10:44:37;;;;;;;4.68;0.57;;;6.90;99.90;;;;;;5019778;28;20073;-76
2023/12/20 10:47:04;;;;;;;3.28;0.63;;;6.90;99.90;;;;;;5001508;28;20042;-77
2023/12/20 10:49:31;;;;;;;0.32;0.20;;;6.80;99.90;;;;;;5019618;28;20114;-77
2023/12/20 10:51:59;;;;;;;7.47;1.10;;;6.80;99.90;;;;;;4990388;28;20073;-76
2023/12/20 10:54:25;;;;;;;6.35;1.38;;;6.80;99.90;;;;;;5019769;28;20057;-76
2023/12/20 10:56:52;;;;;;;3.47;0.40;;;6.80;99.90;;;;;;5017968;28;20096;-76
2023/12/20 10:59:22;;;;;;;5.32;0.43;;;6.80;99.90;;;;;;5018981;28;20053;-76
2023/12/20 11:01:49;;;;;;;4.88;0.60;;;6.90;99.90;;;;;;5010977;28;20054;-75
2023/12/20 11:04:22;;;;;;;4.45;0.63;;;6.80;99.90;;;;;;5017535;28;20042;-76
2023/12/20 11:06:51;;;;;;;3.05;0.57;;;6.90;99.90;;;;;;5020278;28;20050;-76
2023/12/20 11:09:27;;;;;;;0.75;0.50;;;6.90;99.90;;;;;;5017059;28;20057;-76
2023/12/20 11:12:09;;;;;;;6.10;0.82;;;6.90;99.90;;;;;;4996688;28;20093;-76
2023/12/20 11:14:41;;;;;;;;;;;6.80;99.90;;;;;;5017419;28;20136;-76
2023/12/20 11:17:15;;;;;;;12.02;1.02;;;6.80;99.90;;;;;;5017148;28;19959;-76
2023/12/20 11:19:56;;;;;;;3.60;0.65;;;6.80;99.90;;;;;;5018958;28;20054;-76
2023/12/20 11:22:26;;;;;;;1.08;0.40;;;6.80;99.90;;;;;;4994706;28;20047;-76
2023/12/20 11:24:53;;;;;;;2.05;0.25;;;6.80;99.90;;;;;;5017311;28;20038;-76
2023/12/20 11:27:19;;;;;;;1.65;0.60;;;6.80;99.90;;;;;;4986294;28;20046;-76
2023/12/20 11:29:53;;;;;;;1.08;0.40;;;6.90;99.90;;;;;;4984452;28;20050;-76
2023/12/20 11:32:27;;;;;;;3.13;0.65;;;6.90;99.90;;;;;;5000529;28;20472;-76
2023/12/20 11:35:14;;;;;;;3.90;0.52;;;7.00;99.90;;;;;;4997406;28;20090;-76
2023/12/20 11:37:43;;;;;;;6.93;0.52;;;7.00;99.90;;;;;;4994416;28;20046;-76
2023/12/20 11:40:16;;;;;;;8.90;0.70;;;7.00;99.90;;;;;;4985939;28;20050;-76
2023/12/20 11:42:43;;;;;;;5.45;1.23;;;7.00;99.90;;;;;;5000407;28;20049;-76
2023/12/20 11:45:10;;;;;;;1.08;0.47;;;7.00;99.90;;;;;;4985562;28;20045;-76
2023/12/20 11:47:36;;;;;;;5.38;0.77;;;7.00;99.90;;;;;;4981024;28;20097;-76
2023/12/20 11:50:03;;;;;;;2.90;0.40;;;7.00;99.90;;;;;;4982343;28;20506;-76
2023/12/20 11:52:30;;;;;;;7.45;0.80;;;7.10;99.90;;;;;;5016887;28;20413;-76
2023/12/20 11:54:56;;;;;;;11.90;1.70;;;6.90;99.90;;;;;;5017936;28;20076;-76
2023/12/20 11:57:22;;;;;;;0.68;0.35;;;7.00;99.90;;;;;;5002134;28;20109;-76
2023/12/20 11:59:48;;;;;;;2.95;0.80;;;7.00;99.90;;;;;;5000334;28;20073;-76
2023/12/20 12:02:14;;;;;;;0.73;0.68;;;7.00;99.90;;;;;;5001804;28;20042;-76
2023/12/20 12:04:42;;;;;;;5.63;0.90;;;7.00;99.90;;;;;;4999725;28;20089;-76
2023/12/20 12:07:08;;;;;;;1.05;0.45;;;7.00;99.90;;;;;;5001925;28;20045;-76
2023/12/20 12:09:35;;;;;;;5.65;1.02;;;7.00;99.90;;;;;;4968011;28;20050;-76
2023/12/20 12:12:01;;;;;;;7.38;0.77;;;7.00;99.90;;;;;;5001677;28;20046;-76
2023/12/20 12:14:27;;;;;;;3.70;0.98;;;7.00;99.90;;;;;;4985316;28;20511;-76
2023/12/20 12:16:53;;;;;;;2.15;0.30;;;7.00;99.90;;;;;;5000201;28;20065;-76
2023/12/20 12:19:26;;;;;;;0.32;0.32;;;7.00;99.90;;;;;;4996847;28;20093;-76
2023/12/20 12:22:07;;;;;;;0.75;0.30;;;7.00;99.90;;;;;;4994568;28;20086;-76
2023/12/20 12:24:32;;;;;;;4.03;0.77;;;7.00;99.90;;;;;;4992007;28;20520;-76
2023/12/20 12:26:58;;;;;;;3.05;0.35;;;7.00;99.90;;;;;;4968412;28;20038;-75
2023/12/20 12:29:24;;;;;;;2.75;0.60;;;7.00;99.90;;;;;;5001104;28;20048;-76
2023/12/20 12:31:50;;;;;;;8.35;0.50;;;6.90;99.90;;;;;;5001643;28;20045;-76
2023/12/20 12:34:17;;;;;;;4.50;0.63;;;6.90;99.90;;;;;;4983488;28;20049;-76
2023/12/20 12:36:43;;;;;;;0.40;0.35;;;6.90;99.90;;;;;;5005652;28;20129;-76
2023/12/20 12:39:11;;;;;;;2.60;0.70;;;6.90;99.90;;;;;;5017157;28;20085;-76
2023/12/20 12:41:37;;;;;;;2.92;0.70;;;6.90;99.90;;;;;;4985694;28;20109;-75
2023/12/20 12:44:03;;;;;;;2.60;0.40;;;6.80;99.90;;;;;;5000624;28;20073;-75
2023/12/20 12:46:29;;;;;;;3.75;0.65;;;6.80;99.90;;;;;;4999817;28;20084;-75
2023/12/20 12:48:55;;;;;;;0.93;0.43;;;6.70;99.90;;;;;;4985406;28;20069;-75
2023/12/20 12:51:21;;;;;;;3.83;0.68;;;6.70;99.90;;;;;;4995426;28;20042;-75